Aviation Digital Data Service (ADDS)

Output produced by METARs form (2040 UTC 25 November 2014)
found at http://aviationweather.gov/adds/metars/
 
KSLK 251736Z 2518/2618 23015G23KT P6SM SCT025 OVC035 
     FM260000 24012KT P6SM BKN040 
     FM260600 VRB04KT P6SM BKN040 
     FM261200 VRB06KT 3SM -SN BR OVC030